RKSO/OSN METAR and TAF weather

Enter ICAO airport designator
Station Type Date Time Source
RKSO METAR 2021/05/10 23:58 UTC NOAA

RKSO 102358Z 10011KT 7SM SCT250 17/09 A2994 RMK AO2A SLP142 T01650088 10165 20102 51007 $


Station Type Date Time Source
RKSO Decoded METAR 2021/05/10 23:58 UTC NOAA

Osan Ab, Korea, South (RKSO) 37-06N 127-02E 12M
May 10, 2021 - 07:58 PM EDT / 2021.05.10 2358 UTC
Wind: from the E (100 degrees) at 13 MPH (11 KT):0
Visibility: 7 mile(s):0
Sky conditions: partly cloudy
Temperature: 61.7 F (16.5 C)
Dew Point: 47.8 F (8.8 C)
Relative Humidity: 60%
Pressure (altimeter): 29.94 in. Hg (1013 hPa)
Pressure tendency: 0.02 inches (0.7 hPa) higher than three hours ago
ob: RKSO 102358Z 10011KT 7SM SCT250 17/09 A2994 RMK AO2A SLP142 T01650088 10165 20102 51007
cycle: 0

Station Type Date Time Source
RKSO TAF 2021/05/10 21:06 UTC NOAA

TAF TAF RKSO 102100Z 1021/1203 09009KT 9000 BR SCT100 BKN120 QNH2990INS
BECMG 1100/1101 11012G18KT 9000 HZ FEW200 QNH2981INS
BECMG 1109/1110 10010KT 9999 NSW FEW050 QNH2987INS
BECMG 1111/1112 10010KT 9999 SCT050 QNH2989INS
BECMG 1113/1114 09009KT 9999 OVC050 QNH2990INS
BECMG 1200/1201 09009KT 9000 HZ FEW050 FEW200 QNH2981INS TX24/1106Z TN10/1021Z

Example: see airport list